Time;durP1;ratioP1;P1;durP2;ratioP2;P2;SDS_P1;SDS_P2;PMS_P1;PMS_P2;Temp;Humidity;BMP_temperature;BMP_pressure;BME280_temperature;BME280_humidity;BME280_pressure;Samples;Min_cycle;Max_cycle;Signal;HPM_P1;HPM_P2
2023/08/03 00:00:34;;;;;;;5.63;1.20;;;17.40;99.90;;;17.49;86.30;98115.22;4999833;28;20260;-85
2023/08/03 00:03:01;;;;;;;5.32;1.50;;;17.40;99.90;;;17.45;87.01;98112.34;4981048;28;20048;-85
2023/08/03 00:05:29;;;;;;;6.65;1.27;;;17.30;99.90;;;17.47;87.62;98115.56;4979780;28;20055;-85
2023/08/03 00:07:57;;;;;;;7.53;1.40;;;17.40;99.90;;;17.34;87.15;98104.91;4993357;28;20081;-85
2023/08/03 00:10:24;;;;;;;4.45;1.30;;;17.20;99.90;;;17.33;88.27;98119.47;4988018;28;20132;-84
2023/08/03 00:12:52;;;;;;;6.53;1.33;;;17.20;99.90;;;17.27;88.03;98110.72;4988853;28;21705;-84
2023/08/03 00:15:19;;;;;;;4.78;1.40;;;17.20;99.90;;;17.19;88.42;98101.53;4973598;28;20748;-85
2023/08/03 00:17:47;;;;;;;6.45;1.27;;;17.10;99.90;;;17.20;88.94;98115.78;4985814;28;20129;-84
2023/08/03 00:20:14;;;;;;;4.78;1.20;;;17.20;99.90;;;17.20;88.95;98116.59;4982266;28;20082;-85
2023/08/03 00:22:46;;;;;;;3.97;1.23;;;17.10;99.90;;;17.24;88.68;98100.59;4988496;28;20074;-84
2023/08/03 00:25:13;;;;;;;6.10;1.30;;;17.10;99.90;;;17.12;88.22;98087.72;4987043;28;20049;-85
2023/08/03 00:27:40;;;;;;;5.05;1.60;;;17.10;99.90;;;17.11;88.70;98096.13;4990643;28;20035;-85
2023/08/03 00:30:08;;;;;;;5.07;1.38;;;17.10;99.90;;;17.14;88.47;98090.91;5003502;28;20454;-85
2023/08/03 00:32:37;;;;;;;4.82;1.50;;;17.10;99.90;;;17.07;87.57;98092.44;4992080;28;20407;-85
2023/08/03 00:35:06;;;;;;;6.57;1.45;;;17.00;99.90;;;17.14;88.84;98101.69;4989025;28;20486;-85
2023/08/03 00:37:33;;;;;;;6.47;1.48;;;17.10;99.90;;;17.02;88.48;98098.78;4980864;28;20496;-86
2023/08/03 00:40:02;;;;;;;3.72;1.15;;;17.00;99.90;;;16.98;89.33;98109.41;4975663;28;20050;-85
2023/08/03 00:42:30;;;;;;;3.40;0.95;;;17.00;99.90;;;16.98;89.39;98093.25;5004006;28;20048;-85
2023/08/03 00:44:57;;;;;;;5.03;1.40;;;17.00;99.90;;;17.05;88.85;98082.00;4994017;28;20049;-85
2023/08/03 00:47:24;;;;;;;3.65;1.20;;;17.00;99.90;;;16.98;89.37;98087.84;4985980;28;20058;-85
2023/08/03 00:49:51;;;;;;;5.70;1.50;;;17.00;99.90;;;16.99;89.86;98096.72;4985494;28;20093;-85
2023/08/03 00:52:20;;;;;;;4.03;1.10;;;17.00;99.90;;;17.05;89.38;98095.47;4984101;28;20046;-84
2023/08/03 00:54:47;;;;;;;7.28;1.40;;;17.00;99.90;;;17.03;89.47;98095.00;5007648;28;20142;-84
2023/08/03 00:57:16;;;;;;;6.60;1.55;;;17.00;99.90;;;17.03;89.03;98110.34;5004250;28;20141;-84
2023/08/03 00:59:44;;;;;;;4.05;1.27;;;17.00;99.90;;;16.98;88.50;98117.47;4994135;28;20070;-85
2023/08/03 01:02:11;;;;;;;4.68;1.20;;;17.00;99.90;;;17.02;90.06;98112.22;4981027;28;20555;-85
2023/08/03 01:04:38;;;;;;;8.32;1.55;;;17.00;99.90;;;17.06;89.27;98110.50;5005601;28;20081;-85
2023/08/03 01:07:07;;;;;;;5.38;1.10;;;17.00;99.90;;;16.94;90.24;98121.88;4992374;28;20035;-85
2023/08/03 01:09:34;;;;;;;4.78;1.20;;;17.00;99.90;;;16.99;90.71;98129.81;4984879;28;20076;-84
2023/08/03 01:12:02;;;;;;;4.32;1.15;;;17.00;99.90;;;16.90;91.60;98128.19;4985473;28;20126;-84
2023/08/03 01:14:31;;;;;;;4.20;1.20;;;16.90;99.90;;;16.89;92.18;98146.25;4981148;28;20085;-85
2023/08/03 01:16:58;;;;;;;5.13;1.45;;;16.90;99.90;;;16.84;92.92;98141.00;4988631;28;20043;-85
2023/08/03 01:19:25;;;;;;;5.07;1.20;;;16.90;99.90;;;16.91;93.32;98146.72;5002832;28;20137;-85
2023/08/03 01:21:53;;;;;;;6.53;1.25;;;16.90;99.90;;;16.95;93.73;98146.91;4980808;28;20034;-85
2023/08/03 01:24:21;;;;;;;4.55;1.17;;;16.90;99.90;;;16.90;93.61;98161.31;4988330;28;20081;-85
2023/08/03 01:26:49;;;;;;;4.72;1.15;;;16.90;99.90;;;16.90;94.48;98168.59;4988645;28;20109;-85
2023/08/03 01:29:16;;;;;;;4.30;1.33;;;16.90;99.90;;;16.90;94.71;98193.59;4990015;28;20063;-85
2023/08/03 01:31:44;;;;;;;3.85;1.33;;;16.90;99.90;;;16.82;94.98;98191.66;5007189;28;20057;-84
2023/08/03 01:34:13;;;;;;;5.35;1.45;;;16.90;99.90;;;16.82;96.08;98199.72;4987661;28;20076;-85
2023/08/03 01:36:40;;;;;;;5.65;1.30;;;16.90;99.90;;;16.79;96.14;98203.06;4985121;28;20043;-85
2023/08/03 01:39:09;;;;;;;4.80;1.38;;;16.80;99.90;;;16.88;96.32;98203.88;5005118;28;20042;-85
2023/08/03 01:41:41;;;;;;;5.70;1.45;;;16.90;99.90;;;16.90;95.72;98208.97;4992250;28;20562;-85
2023/08/03 01:44:23;;;;;;;4.40;1.40;;;16.90;99.90;;;16.91;95.38;98211.34;4984727;28;20045;-85
2023/08/03 01:46:51;;;;;;;7.28;1.50;;;16.90;99.90;;;16.93;95.78;98213.72;4981522;28;20137;-84
2023/08/03 01:49:19;;;;;;;4.32;1.40;;;16.90;99.90;;;16.98;95.49;98219.81;4991706;28;20125;-85
2023/08/03 01:51:47;;;;;;;4.82;1.45;;;16.90;99.90;;;17.03;94.82;98218.06;5005153;28;20562;-85
2023/08/03 01:54:15;;;;;;;4.32;1.60;;;16.90;99.90;;;17.01;94.84;98221.06;4999231;28;20417;-85
2023/08/03 01:56:43;;;;;;;6.40;1.75;;;16.90;99.90;;;16.99;94.55;98224.06;4987016;28;20093;-85
2023/08/03 01:59:11;;;;;;;8.90;1.83;;;16.90;99.90;;;16.94;94.37;98226.09;4999253;28;20070;-85
2023/08/03 02:01:39;;;;;;;6.80;1.60;;;16.90;99.90;;;16.96;94.99;98224.69;5002348;28;20101;-85
2023/08/03 02:04:06;;;;;;;5.30;1.60;;;16.90;99.90;;;17.03;94.53;98240.41;4983537;28;20145;-85
2023/08/03 02:06:37;;;;;;;5.40;1.52;;;16.90;99.90;;;16.99;94.24;98242.94;4989670;28;20038;-84
2023/08/03 02:09:05;;;;;;;7.15;1.63;;;16.90;99.90;;;16.97;94.01;98239.72;4997869;28;20500;-85
2023/08/03 02:11:34;;;;;;;5.85;1.70;;;16.90;99.90;;;17.01;93.97;98234.53;4991574;28;20404;-85
2023/08/03 02:14:03;;;;;;;7.45;1.90;;;16.90;99.90;;;16.88;94.22;98240.78;4996288;28;20058;-85
2023/08/03 02:16:30;;;;;;;8.20;1.83;;;16.90;99.90;;;16.90;95.09;98246.66;4990274;28;20169;-85
2023/08/03 02:18:57;;;;;;;6.35;2.17;;;16.90;99.90;;;16.95;95.15;98239.25;5001699;28;20042;-84
2023/08/03 02:21:25;;;;;;;5.45;1.80;;;16.90;99.90;;;16.87;94.81;98252.66;4985258;28;20101;-85
2023/08/03 02:23:53;;;;;;;7.10;1.70;;;16.80;99.90;;;16.85;95.41;98250.28;4989515;28;20042;-85
2023/08/03 02:26:20;;;;;;;14.40;2.30;;;16.90;99.90;;;16.84;95.39;98259.47;4993885;28;20165;-85
2023/08/03 02:28:49;;;;;;;11.93;2.63;;;16.90;99.90;;;16.86;95.21;98268.03;4983691;28;20407;-85
2023/08/03 02:31:18;;;;;;;5.93;1.83;;;16.90;99.90;;;16.86;95.35;98259.16;4984221;28;20129;-85
2023/08/03 02:33:50;;;;;;;8.02;2.08;;;16.90;99.90;;;16.90;94.94;98268.22;5003807;28;20392;-85
2023/08/03 02:36:23;;;;;;;6.82;1.95;;;16.90;99.90;;;16.86;94.91;98262.63;4996403;28;20653;-85
2023/08/03 02:38:54;;;;;;;7.90;1.90;;;16.80;99.90;;;16.89;94.66;98272.81;4995201;28;20803;-85
2023/08/03 02:41:21;;;;;;;5.95;1.60;;;16.80;99.90;;;16.91;95.18;98262.50;4982509;28;20054;-84
2023/08/03 02:43:49;;;;;;;8.45;1.88;;;16.90;99.90;;;16.86;94.57;98264.53;4990662;28;20104;-85
2023/08/03 02:46:22;;;;;;;10.77;1.90;;;16.80;99.90;;;16.89;94.77;98278.19;5000401;28;20048;-85
2023/08/03 02:48:50;;;;;;;10.38;2.08;;;16.90;99.90;;;16.91;94.76;98277.88;5005793;28;20066;-85
2023/08/03 02:51:18;;;;;;;5.60;1.98;;;16.90;99.90;;;16.89;94.10;98288.16;4983073;28;20550;-84
2023/08/03 02:53:46;;;;;;;6.53;1.83;;;16.90;99.90;;;16.90;94.38;98284.38;4988213;28;20508;-84
2023/08/03 02:56:13;;;;;;;9.00;2.20;;;16.90;99.90;;;16.92;94.40;98282.94;4989467;28;20047;-84
2023/08/03 02:58:46;;;;;;;8.25;2.03;;;16.90;99.90;;;16.90;94.34;98295.94;4982760;28;20055;-85
2023/08/03 03:01:24;;;;;;;8.35;2.58;;;16.90;99.90;;;16.91;94.02;98299.41;4981192;28;20072;-85
2023/08/03 03:03:54;;;;;;;8.73;2.58;;;16.90;99.90;;;16.92;94.39;98292.91;4990570;28;20046;-85
2023/08/03 03:06:22;;;;;;;9.30;2.13;;;16.90;99.90;;;16.97;94.25;98290.09;4986286;28;20062;-85
2023/08/03 03:08:51;;;;;;;9.35;2.15;;;16.90;99.90;;;17.01;93.13;98301.06;5004708;28;20043;-84
2023/08/03 03:11:19;;;;;;;10.02;2.20;;;16.90;99.90;;;16.98;93.09;98297.91;4990624;28;20054;-84
2023/08/03 03:13:46;;;;;;;8.18;2.38;;;16.90;99.90;;;16.98;92.96;98292.50;4978771;28;20082;-84
2023/08/03 03:16:14;;;;;;;7.10;2.00;;;16.90;99.90;;;16.95;92.40;98292.31;4990606;28;20042;-85
2023/08/03 03:18:42;;;;;;;11.25;2.38;;;16.90;99.90;;;16.94;92.84;98293.44;4978226;28;20486;-85
2023/08/03 03:21:10;;;;;;;8.45;2.22;;;16.90;99.90;;;16.90;92.81;98290.53;4989074;28;20046;-84
2023/08/03 03:23:37;;;;;;;8.20;2.08;;;16.80;99.90;;;16.91;92.53;98292.13;4980135;28;20431;-85
2023/08/03 03:26:05;;;;;;;5.90;2.08;;;16.90;99.90;;;16.91;92.51;98284.06;4987499;28;20093;-85
2023/08/03 03:28:32;;;;;;;11.38;2.20;;;16.80;99.90;;;16.88;92.34;98286.56;5003638;28;20050;-85
2023/08/03 03:30:59;;;;;;;10.70;2.10;;;16.80;99.90;;;16.89;91.41;98297.03;4983033;28;20058;-84
2023/08/03 03:33:28;;;;;;;8.75;2.28;;;16.80;99.90;;;16.93;91.88;98299.88;4999150;28;20042;-85
2023/08/03 03:36:08;;;;;;;6.78;1.67;;;16.80;99.90;;;16.94;91.89;98312.28;5005061;28;20138;-84
2023/08/03 03:38:35;;;;;;;8.33;1.73;;;16.80;99.90;;;16.94;91.48;98315.75;5037099;22;20052;-87
2023/08/03 03:41:02;;;;;;;6.68;2.13;;;16.80;99.90;;;16.95;90.76;98314.66;5011828;28;20033;-84
2023/08/03 03:43:34;;;;;;;10.57;2.20;;;16.90;99.90;;;16.98;90.48;98324.00;5008307;28;20092;-84
2023/08/03 03:46:02;;;;;;;5.30;1.73;;;16.90;99.90;;;16.96;90.44;98326.22;5007283;28;20132;-84
2023/08/03 03:48:30;;;;;;;6.60;2.20;;;16.80;99.90;;;16.91;90.15;98319.06;5006905;28;20065;-85
2023/08/03 03:51:01;;;;;;;;;;;16.80;99.90;;;16.97;89.71;98327.81;4976198;28;20053;-86
2023/08/03 03:53:30;;;;;;;6.82;2.05;;;16.90;99.90;;;16.94;89.53;98326.53;4982806;28;19925;-85
2023/08/03 03:56:02;;;;;;;6.68;2.00;;;16.80;99.90;;;16.94;89.45;98329.22;4975274;28;20149;-84
2023/08/03 03:58:30;;;;;;;8.43;2.35;;;16.80;99.90;;;16.86;89.24;98324.56;4985620;28;20039;-84
2023/08/03 04:00:58;;;;;;;7.80;1.67;;;16.80;99.90;;;16.85;89.70;98338.34;5005735;28;20051;-84
2023/08/03 04:03:26;;;;;;;4.00;1.52;;;16.80;99.90;;;16.85;89.65;98336.44;4987673;28;20449;-84
2023/08/03 04:05:55;;;;;;;6.87;1.70;;;16.80;99.90;;;16.88;89.30;98345.78;4992246;28;20077;-83
2023/08/03 04:08:23;;;;;;;7.85;1.65;;;16.80;99.90;;;16.84;89.25;98344.81;4985032;28;20561;-83
2023/08/03 04:10:51;;;;;;;7.05;1.50;;;16.80;99.90;;;16.84;89.55;98339.44;4995704;28;20039;-83
2023/08/03 04:13:19;;;;;;;4.60;1.85;;;16.80;99.90;;;16.85;89.20;98332.94;4990836;28;20046;-83
2023/08/03 04:15:47;;;;;;;6.68;1.60;;;16.80;99.90;;;16.90;89.72;98336.31;4990904;28;20046;-83
2023/08/03 04:18:15;;;;;;;6.10;1.60;;;16.80;99.90;;;16.94;89.25;98331.91;4982874;28;20495;-83
2023/08/03 04:20:43;;;;;;;6.80;1.48;;;16.90;99.90;;;16.89;88.48;98326.66;4983873;28;20046;-83
2023/08/03 04:23:10;;;;;;;4.88;1.58;;;16.80;99.90;;;16.92;89.06;98339.50;4988764;28;20039;-84
2023/08/03 04:25:38;;;;;;;3.70;1.40;;;16.80;99.90;;;16.86;88.59;98323.78;4989543;28;20414;-84
2023/08/03 04:28:14;;;;;;;5.85;1.50;;;16.80;99.90;;;16.85;88.08;98331.06;4987578;28;20138;-83
2023/08/03 04:30:43;;;;;;;4.55;1.33;;;16.80;99.90;;;16.83;88.13;98344.00;4990549;28;20069;-84
2023/08/03 04:33:11;;;;;;;4.85;1.42;;;16.80;99.90;;;16.84;88.21;98350.22;4981978;28;20101;-83
2023/08/03 04:35:40;;;;;;;6.60;1.58;;;16.80;99.90;;;16.90;88.62;98341.69;4986340;28;20045;-83
2023/08/03 04:38:14;;;;;;;6.00;1.35;;;16.90;99.90;;;16.90;88.22;98359.75;4982481;28;20050;-83
2023/08/03 04:40:48;;;;;;;3.92;1.23;;;16.90;99.90;;;16.83;87.79;98365.53;4975174;28;20046;-84
2023/08/03 04:43:17;;;;;;;5.22;1.35;;;16.80;99.90;;;16.85;88.91;98357.97;4990002;28;20555;-84
2023/08/03 04:45:45;;;;;;;7.88;1.92;;;16.90;99.90;;;16.86;88.55;98362.25;4987940;28;20046;-83
2023/08/03 04:48:12;;;;;;;4.65;1.75;;;16.80;99.90;;;16.84;87.98;98355.59;4989848;28;20097;-83
2023/08/03 04:50:39;;;;;;;4.85;1.45;;;16.90;99.90;;;16.89;88.32;98361.66;4983443;28;20134;-83
2023/08/03 04:53:07;;;;;;;5.32;1.30;;;16.90;99.90;;;16.91;87.97;98367.53;4987476;28;20047;-83
2023/08/03 04:55:35;;;;;;;4.55;1.40;;;16.90;99.90;;;16.87;88.09;98355.75;4990278;28;20050;-83
2023/08/03 04:58:03;;;;;;;7.22;1.50;;;16.90;99.90;;;16.88;87.94;98368.13;4989583;28;20046;-83
2023/08/03 05:00:33;;;;;;;4.65;1.40;;;16.90;99.90;;;16.87;86.21;98371.91;4989934;28;20074;-83
2023/08/03 05:03:00;;;;;;;5.55;1.38;;;16.90;99.90;;;16.86;87.44;98356.88;4990846;28;20500;-83
2023/08/03 05:05:27;;;;;;;4.93;1.73;;;16.90;99.90;;;16.86;86.98;98359.56;4980648;28;20055;-83
2023/08/03 05:07:54;;;;;;;4.63;1.30;;;16.90;99.90;;;16.80;87.19;98385.00;4992135;28;20446;-83
2023/08/03 05:10:24;;;;;;;3.22;1.10;;;16.90;99.90;;;16.88;88.22;98378.09;4993271;28;20690;-83
2023/08/03 05:12:52;;;;;;;5.80;1.60;;;16.90;99.90;;;16.88;88.25;98370.81;4978801;28;20050;-83
2023/08/03 05:15:19;;;;;;;4.47;1.33;;;16.90;99.90;;;16.90;89.18;98382.09;4930370;28;20050;-83
2023/08/03 05:17:49;;;;;;;8.40;1.60;;;16.90;99.90;;;16.94;89.48;98385.78;4987555;28;20528;-83
2023/08/03 05:20:17;;;;;;;5.07;1.30;;;16.90;99.90;;;16.96;89.84;98401.63;4986260;28;20050;-83
2023/08/03 05:22:45;;;;;;;5.68;1.35;;;16.90;99.90;;;16.95;90.05;98405.41;4986306;28;20054;-83
2023/08/03 05:25:12;;;;;;;5.38;1.40;;;16.90;99.90;;;16.92;90.04;98409.50;4995170;28;20034;-83
2023/08/03 05:27:40;;;;;;;5.30;1.50;;;16.90;99.90;;;16.93;90.79;98397.66;4990894;28;20122;-83
2023/08/03 05:30:08;;;;;;;4.80;1.30;;;16.90;99.90;;;16.98;90.33;98396.72;4985550;28;20039;-83
2023/08/03 05:32:36;;;;;;;4.35;1.45;;;16.90;99.90;;;16.97;89.78;98392.44;4989274;28;20047;-83
2023/08/03 05:35:05;;;;;;;5.82;1.38;;;16.90;99.90;;;16.98;90.27;98396.72;4992996;28;20046;-83
2023/08/03 05:37:33;;;;;;;3.70;1.42;;;16.90;99.90;;;16.99;90.08;98396.44;4975271;28;20448;-85
2023/08/03 05:40:03;;;;;;;3.45;1.10;;;16.90;99.90;;;16.96;89.94;98396.22;4991049;28;20050;-85
2023/08/03 05:42:38;;;;;;;3.22;1.17;;;16.90;99.90;;;17.02;90.25;98410.38;5009502;28;20434;-85
2023/08/03 05:45:11;;;;;;;3.80;1.30;;;16.90;99.90;;;17.03;90.06;98404.69;4992490;28;20042;-85
2023/08/03 05:47:39;;;;;;;7.15;1.95;;;16.90;99.90;;;16.98;89.46;98399.41;4994324;28;20101;-85
2023/08/03 05:50:14;;;;;;;6.32;1.50;;;16.90;99.90;;;16.99;88.95;98396.44;4991772;28;20566;-85
2023/08/03 05:52:42;;;;;;;7.90;1.20;;;16.90;99.90;;;16.97;90.18;98401.31;4989216;28;20057;-85
2023/08/03 05:55:12;;;;;;;5.07;1.08;;;16.90;99.90;;;16.95;89.65;98403.53;4994945;28;20042;-84
2023/08/03 05:57:40;;;;;;;4.65;1.20;;;16.90;99.90;;;16.97;90.15;98414.78;4989720;28;20050;-84
2023/08/03 06:00:18;;;;;;;5.22;1.52;;;17.00;99.90;;;16.99;90.05;98414.50;4992346;28;20045;-85
2023/08/03 06:02:45;;;;;;;5.32;1.40;;;17.00;99.90;;;17.02;91.22;98413.84;4993301;28;20097;-85
2023/08/03 06:05:45;;;;;;;3.78;1.30;;;17.00;99.90;;;17.06;91.23;98419.44;4995040;28;20065;-85
2023/08/03 06:08:17;;;;;;;2.40;1.00;;;17.10;99.90;;;16.99;91.04;98420.66;5009392;28;20055;-85
2023/08/03 06:10:46;;;;;;;5.05;1.20;;;17.00;99.90;;;16.91;91.56;98426.75;4970424;28;20105;-83
2023/08/03 06:13:16;;;;;;;5.35;1.20;;;17.00;99.90;;;16.91;91.71;98431.34;4983359;28;20038;-83
2023/08/03 06:15:45;;;;;;;6.10;1.00;;;17.00;99.90;;;16.88;92.22;98430.03;4989783;28;20080;-83
2023/08/03 06:18:15;;;;;;;7.35;1.27;;;17.00;99.90;;;16.86;92.78;98443.03;4992950;28;20428;-84
2023/08/03 06:20:49;;;;;;;3.63;1.30;;;16.90;99.90;;;16.86;93.13;98450.31;4993856;28;20093;-84
2023/08/03 06:23:18;;;;;;;7.32;1.67;;;16.90;99.90;;;16.86;93.30;98466.47;4992396;28;20066;-84
2023/08/03 06:25:47;;;;;;;4.53;1.50;;;16.90;99.90;;;16.91;94.33;98469.06;4991038;28;20047;-83
2023/08/03 06:28:17;;;;;;;7.65;1.80;;;16.90;99.90;;;16.93;94.22;98466.84;4987045;28;20112;-83
2023/08/03 06:30:44;;;;;;;4.95;1.30;;;16.90;99.90;;;16.89;94.63;98453.22;4996308;28;20104;-83
2023/08/03 06:33:15;;;;;;;7.60;1.65;;;16.90;99.90;;;16.93;95.18;98456.06;5004853;28;20081;-83
2023/08/03 06:35:45;;;;;;;5.05;1.50;;;16.90;99.90;;;16.97;94.96;98460.56;5012356;28;20050;-83
2023/08/03 06:38:15;;;;;;;5.23;1.60;;;16.90;99.90;;;16.93;95.07;98462.28;5011816;28;20672;-83
2023/08/03 06:40:43;;;;;;;5.22;1.38;;;16.90;99.90;;;16.88;96.17;98467.75;5005873;28;20073;-83
2023/08/03 06:43:12;;;;;;;6.45;1.33;;;16.80;99.90;;;16.87;97.13;98481.53;4981665;28;20050;-83
2023/08/03 06:45:41;;;;;;;4.18;1.30;;;16.80;99.90;;;16.88;96.99;98481.22;4990772;28;20400;-83
2023/08/03 06:48:09;;;;;;;5.13;1.70;;;16.80;99.90;;;16.79;97.78;98483.03;4990391;28;20042;-83
2023/08/03 06:50:38;;;;;;;5.22;1.40;;;16.80;99.90;;;16.79;98.30;98480.34;4987919;28;20483;-83
2023/08/03 06:53:07;;;;;;;7.60;1.45;;;16.80;99.90;;;16.74;98.68;98496.59;4988486;28;20133;-83
2023/08/03 06:55:34;;;;;;;5.70;1.60;;;16.70;99.90;;;16.70;99.89;98501.75;4987734;28;20097;-83
2023/08/03 06:58:01;;;;;;;6.97;1.50;;;16.70;99.90;;;16.76;99.84;98499.00;4993653;28;20081;-83
2023/08/03 07:00:29;;;;;;;3.78;1.55;;;16.70;99.90;;;16.77;99.30;98508.66;4988512;28;20073;-83
2023/08/03 07:02:57;;;;;;;5.97;2.08;;;16.80;99.90;;;16.73;99.28;98520.00;4989650;28;20038;-83
2023/08/03 07:05:26;;;;;;;6.30;1.45;;;16.80;99.90;;;16.69;100.00;98519.00;4984853;28;20081;-83
2023/08/03 07:07:54;;;;;;;4.97;1.60;;;16.70;99.90;;;16.69;100.00;98539.75;4985885;28;20070;-83
2023/08/03 07:10:22;;;;;;;5.75;1.25;;;16.70;99.90;;;16.70;100.00;98534.06;4990254;28;20843;-83
2023/08/03 07:12:50;;;;;;;4.70;1.20;;;16.70;99.90;;;16.68;100.00;98540.81;4986424;28;20674;-83
2023/08/03 07:15:17;;;;;;;6.22;1.73;;;16.70;99.90;;;16.69;100.00;98537.84;4992217;28;20035;-84
2023/08/03 07:17:44;;;;;;;7.93;1.42;;;16.70;99.90;;;16.69;100.00;98553.22;4986641;28;20047;-84
2023/08/03 07:20:12;;;;;;;5.25;1.40;;;16.70;99.90;;;16.71;100.00;98561.78;4961190;28;20646;-84
2023/08/03 07:22:40;;;;;;;7.50;1.40;;;16.80;99.90;;;16.76;100.00;98559.00;4971192;28;20052;-84
2023/08/03 07:25:08;;;;;;;5.03;1.63;;;16.80;99.90;;;16.88;100.00;98569.28;4992522;28;20125;-84
2023/08/03 07:27:41;;;;;;;6.10;1.30;;;16.90;99.90;;;16.97;100.00;98575.56;4983180;28;20094;-84
2023/08/03 07:30:10;;;;;;;4.28;1.35;;;17.00;99.90;;;17.07;100.00;98571.88;4987343;28;20488;-84
2023/08/03 07:32:38;;;;;;;4.18;1.40;;;17.10;99.90;;;17.06;100.00;98583.75;4988221;28;20141;-84
2023/08/03 07:35:07;;;;;;;5.38;1.60;;;17.10;99.90;;;17.08;100.00;98585.06;4984585;28;20034;-83
2023/08/03 07:37:34;;;;;;;3.20;1.30;;;17.10;99.90;;;17.08;100.00;98581.53;4984950;28;20108;-83
2023/08/03 07:40:01;;;;;;;3.28;1.02;;;17.20;99.90;;;17.11;100.00;98589.03;4988570;28;20484;-83
2023/08/03 07:42:29;;;;;;;5.07;1.30;;;17.20;99.90;;;17.06;100.00;98595.31;4986817;28;20105;-84
2023/08/03 07:44:58;;;;;;;4.85;1.35;;;17.10;99.90;;;16.98;100.00;98602.22;4990404;28;20058;-83
2023/08/03 07:47:26;;;;;;;5.10;1.70;;;17.00;99.90;;;16.95;100.00;98608.19;4987277;28;20053;-83
2023/08/03 07:49:55;;;;;;;5.68;1.40;;;17.00;99.90;;;17.00;100.00;98618.06;4987434;28;20084;-83
2023/08/03 07:52:23;;;;;;;4.13;1.60;;;17.10;99.90;;;16.98;100.00;98610.28;4989561;28;20050;-83
2023/08/03 07:54:50;;;;;;;7.43;1.40;;;17.10;99.90;;;17.02;100.00;98615.84;4992036;28;20142;-84
2023/08/03 07:57:18;;;;;;;4.25;1.88;;;17.10;99.90;;;17.03;100.00;98616.66;4983696;28;20097;-83
2023/08/03 07:59:49;;;;;;;4.85;1.63;;;17.10;99.90;;;17.00;100.00;98620.75;4985202;28;20100;-83
2023/08/03 08:02:19;;;;;;;7.95;2.30;;;17.10;99.90;;;17.03;100.00;98622.03;4991257;28;20129;-84
2023/08/03 08:04:50;;;;;;;4.88;1.80;;;17.10;99.90;;;17.03;100.00;98630.94;4991903;28;20105;-83
2023/08/03 08:07:18;;;;;;;6.45;2.10;;;17.10;99.90;;;17.06;100.00;98626.84;4991457;28;20492;-83
2023/08/03 08:09:45;;;;;;;7.10;2.22;;;17.20;99.90;;;17.19;100.00;98626.03;4990490;28;20121;-83
2023/08/03 08:12:12;;;;;;;5.35;2.05;;;17.30;99.90;;;17.34;100.00;98635.72;4990477;28;20050;-83
2023/08/03 08:14:40;;;;;;;5.53;2.33;;;17.50;99.90;;;17.49;100.00;98648.88;4991011;28;20054;-83
2023/08/03 08:17:07;;;;;;;6.40;2.58;;;17.60;99.90;;;17.57;100.00;98641.97;4983689;28;20054;-83
2023/08/03 08:19:36;;;;;;;6.35;2.80;;;17.80;99.90;;;17.64;100.00;98642.38;4988089;28;20439;-83
2023/08/03 08:22:03;;;;;;;6.93;2.30;;;17.90;99.90;;;17.73;100.00;98648.66;4989100;28;20133;-83
2023/08/03 08:24:30;;;;;;;7.15;2.60;;;17.90;99.90;;;17.89;100.00;98641.81;4992876;28;20081;-83
2023/08/03 08:26:58;;;;;;;5.97;2.13;;;18.10;99.90;;;18.02;100.00;98648.28;4990939;28;20053;-83
2023/08/03 08:29:25;;;;;;;9.40;2.15;;;18.30;99.90;;;17.91;100.00;98653.13;4973700;28;20070;-84
2023/08/03 08:31:52;;;;;;;6.90;2.05;;;18.20;99.90;;;17.91;100.00;98652.31;4993035;28;20035;-83
2023/08/03 08:34:19;;;;;;;8.45;2.08;;;18.20;99.90;;;17.81;100.00;98658.72;4992493;28;20074;-83
2023/08/03 08:36:51;;;;;;;7.90;2.33;;;18.10;99.90;;;17.81;100.00;98664.13;4988401;28;20035;-83
2023/08/03 08:39:18;;;;;;;6.57;1.92;;;18.00;99.90;;;17.82;100.00;98667.63;4985116;28;20050;-83
2023/08/03 08:41:46;;;;;;;8.25;2.30;;;18.00;99.90;;;17.78;100.00;98678.22;4994408;28;20848;-83
2023/08/03 08:44:14;;;;;;;4.75;2.28;;;18.00;99.90;;;17.75;100.00;98676.13;4985523;28;20050;-83
2023/08/03 08:46:43;;;;;;;4.70;2.00;;;17.90;99.90;;;17.83;100.00;98682.72;4995051;28;20136;-83
2023/08/03 08:49:11;;;;;;;7.18;2.10;;;17.90;99.90;;;17.76;100.00;98680.41;4995771;28;20046;-83
2023/08/03 08:51:41;;;;;;;7.22;2.20;;;17.90;99.90;;;17.75;100.00;98681.50;4991917;28;20045;-84
2023/08/03 08:54:10;;;;;;;3.63;1.50;;;17.90;99.90;;;17.73;99.19;98683.72;4992053;28;20043;-84
2023/08/03 08:56:41;;;;;;;5.78;1.83;;;17.90;99.90;;;17.64;98.47;98686.28;4988456;28;20038;-83
2023/08/03 08:59:08;;;;;;;5.93;1.92;;;17.80;99.90;;;17.70;98.95;98695.88;4987371;28;20038;-83
2023/08/03 09:01:52;;;;;;;7.25;1.95;;;17.80;99.90;;;17.70;98.32;98695.06;4988706;28;20530;-83
2023/08/03 09:04:29;;;;;;;7.57;2.00;;;17.90;99.90;;;17.73;99.22;98698.00;4986467;28;20573;-82
2023/08/03 09:06:56;;;;;;;7.13;2.00;;;17.90;99.90;;;17.76;99.93;98701.97;4990513;28;20126;-82
2023/08/03 09:09:38;;;;;;;6.22;2.05;;;18.00;99.90;;;17.77;98.19;98695.50;4978451;28;20046;-82
2023/08/03 09:12:07;;;;;;;6.10;2.17;;;18.00;99.90;;;17.86;98.77;98709.88;4990348;28;20043;-82
2023/08/03 09:14:50;;;;;;;8.30;2.20;;;18.10;99.90;;;17.89;98.23;98706.56;4994372;28;20066;-82
2023/08/03 09:17:18;;;;;;;5.38;1.98;;;18.10;99.90;;;17.87;98.07;98710.69;4992324;28;20050;-82
2023/08/03 09:19:46;;;;;;;7.20;2.35;;;18.10;99.90;;;17.79;94.73;98719.47;4986127;28;20047;-82
2023/08/03 09:22:13;;;;;;;8.35;2.05;;;18.00;99.90;;;17.77;95.56;98722.47;4993188;28;20132;-82
2023/08/03 09:24:42;;;;;;;7.85;2.20;;;17.90;99.90;;;17.79;96.72;98728.34;4994405;28;20116;-82
2023/08/03 09:27:15;;;;;;;5.53;1.73;;;17.90;99.90;;;17.74;95.21;98720.38;4994967;28;20081;-82
2023/08/03 09:29:43;;;;;;;8.00;1.83;;;17.90;99.90;;;17.78;96.46;98726.75;4989711;28;20590;-82
2023/08/03 09:32:12;;;;;;;5.28;2.00;;;17.90;99.90;;;17.83;96.04;98732.06;4992094;28;20156;-82
2023/08/03 09:34:43;;;;;;;8.85;1.92;;;18.00;99.90;;;17.87;96.08;98729.56;4989096;28;20419;-82
2023/08/03 09:37:13;;;;;;;9.93;2.08;;;18.00;99.90;;;17.93;96.80;98737.22;4987173;28;20070;-83
2023/08/03 09:39:54;;;;;;;3.72;1.60;;;18.10;99.90;;;17.93;95.01;98741.81;4990737;28;20085;-83
2023/08/03 09:42:23;;;;;;;6.00;2.10;;;18.10;99.90;;;17.86;93.36;98744.94;4985962;28;20093;-82
2023/08/03 09:44:51;;;;;;;4.75;1.85;;;18.10;99.90;;;17.87;93.15;98735.75;4991503;28;20038;-82
2023/08/03 09:47:19;;;;;;;7.30;2.05;;;18.00;99.90;;;17.73;89.95;98748.44;4992884;28;20056;-82
2023/08/03 09:49:47;;;;;;;5.78;1.52;;;17.90;99.90;;;17.66;91.06;98758.78;4989173;28;20133;-82
2023/08/03 09:52:18;;;;;;;5.20;2.00;;;17.90;99.90;;;17.64;92.04;98755.59;5002247;28;20041;-82
2023/08/03 09:54:55;;;;;;;6.40;1.95;;;17.80;99.90;;;17.66;93.83;98761.47;4985108;28;20146;-82
2023/08/03 09:57:25;;;;;;;6.53;1.77;;;17.80;99.90;;;17.56;94.02;98762.47;4991986;28;20101;-82
2023/08/03 09:59:58;;;;;;;6.10;1.70;;;17.70;99.90;;;17.65;95.33;98767.97;4982902;28;20047;-82
2023/08/03 10:02:30;;;;;;;4.78;2.10;;;17.80;99.90;;;17.66;94.70;98770.38;4990907;28;20050;-82
2023/08/03 10:05:02;;;;;;;6.20;2.05;;;17.80;99.90;;;17.60;94.29;98776.97;4989890;28;20046;-83
2023/08/03 10:07:36;;;;;;;7.10;2.05;;;17.70;99.90;;;17.69;96.18;98785.16;4984597;28;20395;-82
2023/08/03 10:10:06;;;;;;;5.43;2.05;;;17.90;99.90;;;17.80;96.33;98769.59;4990923;28;20056;-82
2023/08/03 10:12:41;;;;;;;7.13;2.40;;;18.00;99.90;;;17.86;94.59;98774.59;4987548;28;20129;-82
2023/08/03 10:15:11;;;;;;;5.90;2.25;;;18.10;99.90;;;17.90;95.04;98775.56;4992566;28;20042;-82
2023/08/03 10:17:39;;;;;;;6.25;2.17;;;18.10;99.90;;;17.91;93.25;98782.59;4989954;28;20042;-82
2023/08/03 10:20:09;;;;;;;5.57;2.35;;;18.10;99.90;;;17.93;93.25;98780.38;4981084;28;20042;-82
2023/08/03 10:22:36;;;;;;;6.25;2.45;;;18.10;99.90;;;17.90;91.69;98791.75;5018445;23;20077;-83
2023/08/03 10:25:19;;;;;;;8.00;2.47;;;18.10;99.90;;;17.86;92.16;98790.78;5002435;28;20048;-83